createdAt,value
2018-05-18T00:00:42.299Z,29.60
2018-05-18T00:03:08.300Z,43.40
2018-05-18T00:05:34.228Z,36.67
2018-05-18T00:08:00.122Z,35.83
2018-05-18T00:10:26.765Z,31.33
2018-05-18T00:12:53.469Z,34.83
2018-05-18T00:15:19.362Z,33.93
2018-05-18T00:17:45.266Z,31.87
2018-05-18T00:20:15.043Z,30.67
2018-05-18T00:22:41.702Z,34.87
2018-05-18T00:25:07.644Z,37.63
2018-05-18T00:27:33.567Z,43.77
2018-05-18T00:29:59.500Z,41.20
2018-05-18T00:32:25.402Z,41.43
2018-05-18T00:34:51.321Z,41.30
2018-05-18T00:37:17.234Z,32.53
2018-05-18T00:39:43.133Z,30.50
2018-05-18T00:42:09.886Z,36.50
2018-05-18T00:44:35.796Z,29.23
2018-05-18T00:47:02.499Z,39.77
2018-05-18T00:49:28.477Z,44.63
2018-05-18T00:51:54.865Z,31.07
2018-05-18T00:54:20.815Z,31.40
2018-05-18T00:56:47.449Z,39.47
2018-05-18T00:59:14.075Z,37.47
2018-05-18T01:01:40.732Z,39.03
2018-05-18T01:04:06.659Z,27.33
2018-05-18T01:06:32.579Z,26.23
2018-05-18T01:08:58.498Z,36.97
2018-05-18T01:11:24.397Z,35.03
2018-05-18T01:13:51.072Z,38.90
2018-05-18T01:16:16.971Z,32.50
2018-05-18T01:18:43.658Z,30.47
2018-05-18T01:21:09.543Z,32.80
2018-05-18T01:23:35.429Z,34.30
2018-05-18T01:26:01.337Z,35.07
2018-05-18T01:28:27.242Z,46.77
2018-05-18T01:30:53.169Z,34.07
2018-05-18T01:33:19.084Z,38.60
2018-05-18T01:35:44.982Z,49.47
2018-05-18T01:38:10.906Z,30.90
2018-05-18T01:40:36.789Z,35.33
2018-05-18T01:43:03.428Z,48.13
2018-05-18T01:45:30.060Z,32.47
2018-05-18T01:47:56.702Z,35.90
2018-05-18T01:50:23.366Z,37.50
2018-05-18T01:52:49.296Z,34.70
2018-05-18T01:55:15.211Z,30.73
2018-05-18T01:57:41.128Z,31.80
2018-05-18T02:00:07.023Z,39.57
2018-05-18T02:02:33.677Z,37.93
2018-05-18T02:04:59.571Z,36.47
2018-05-18T02:07:25.521Z,31.40
2018-05-18T02:09:51.416Z,38.97
2018-05-18T02:12:18.081Z,35.47
2018-05-18T02:14:43.977Z,33.13
2018-05-18T02:17:10.620Z,32.60
2018-05-18T02:19:37.281Z,35.53
2018-05-18T02:22:03.189Z,40.63
2018-05-18T02:24:29.817Z,28.67
2018-05-18T02:26:56.470Z,33.43
2018-05-18T02:29:22.360Z,30.57
2018-05-18T02:31:48.273Z,39.67
2018-05-18T02:34:14.175Z,33.03
2018-05-18T02:36:40.067Z,39.60
2018-05-18T02:39:05.981Z,47.13
2018-05-18T02:41:31.889Z,29.23
2018-05-18T02:43:57.783Z,37.37
2018-05-18T02:46:24.453Z,34.07
2018-05-18T02:48:50.378Z,35.83
2018-05-18T02:51:16.265Z,37.23
2018-05-18T02:53:42.984Z,27.50
2018-05-18T02:56:09.091Z,34.17
2018-05-18T02:58:34.981Z,35.20
2018-05-18T03:01:00.864Z,29.23
2018-05-18T03:03:26.765Z,43.77
2018-05-18T03:05:52.665Z,27.67
2018-05-18T03:08:18.562Z,35.10
2018-05-18T03:10:44.440Z,29.17
2018-05-18T03:13:10.340Z,34.10
2018-05-18T03:15:36.260Z,29.60
2018-05-18T03:18:02.173Z,29.27
2018-05-18T03:20:28.122Z,22.53
2018-05-18T03:22:54.762Z,35.83
2018-05-18T03:25:20.664Z,29.27
2018-05-18T03:27:46.559Z,27.03
2018-05-18T03:30:13.182Z,21.47
2018-05-18T03:32:39.084Z,41.20
2018-05-18T03:35:05.828Z,23.97
2018-05-18T03:37:32.491Z,27.47
2018-05-18T03:39:58.376Z,33.97
2018-05-18T03:42:25.033Z,29.60
2018-05-18T03:44:50.944Z,31.80
2018-05-18T03:47:17.593Z,23.13
2018-05-18T03:49:43.491Z,31.10
2018-05-18T03:52:10.121Z,28.67
2018-05-18T03:54:36.063Z,28.53
2018-05-18T03:57:02.740Z,32.23
2018-05-18T03:59:28.631Z,31.33
2018-05-18T04:02:07.058Z,33.30
2018-05-18T04:04:47.297Z,25.97
2018-05-18T04:07:26.522Z,30.57
2018-05-18T04:09:53.151Z,30.23
2018-05-18T04:12:19.790Z,32.63
2018-05-18T04:14:46.416Z,30.50
2018-05-18T04:17:12.357Z,23.83
2018-05-18T04:19:38.972Z,25.03
2018-05-18T04:22:04.889Z,22.27
2018-05-18T04:24:30.773Z,24.17
2018-05-18T04:26:56.682Z,22.20
2018-05-18T04:29:22.596Z,21.77
2018-05-18T04:31:48.541Z,25.50
2018-05-18T04:34:14.499Z,27.27
2018-05-18T04:36:40.378Z,24.50
2018-05-18T04:39:06.259Z,23.47
2018-05-18T04:41:32.933Z,26.83
2018-05-18T04:43:58.820Z,25.60
2018-05-18T04:46:25.481Z,27.80
2018-05-18T04:48:51.455Z,21.30
2018-05-18T04:51:17.789Z,24.83
2018-05-18T04:53:43.693Z,25.00
2018-05-18T04:56:09.593Z,27.57
2018-05-18T04:58:35.509Z,32.50
2018-05-18T05:01:01.405Z,26.20
2018-05-18T05:03:27.333Z,28.30
2018-05-18T05:05:53.247Z,27.87
2018-05-18T05:08:19.141Z,26.37
2018-05-18T05:10:45.732Z,31.40
2018-05-18T05:13:11.643Z,20.77
2018-05-18T05:15:37.529Z,29.17
2018-05-18T05:18:03.422Z,27.17
2018-05-18T05:20:29.336Z,27.10
2018-05-18T05:22:55.252Z,30.53
2018-05-18T05:25:21.180Z,33.90
2018-05-18T05:27:47.088Z,37.07
2018-05-18T05:30:12.989Z,31.70
2018-05-18T05:32:38.881Z,27.83
2018-05-18T05:35:05.549Z,28.30
2018-05-18T05:37:31.488Z,30.17
2018-05-18T05:39:57.377Z,32.80
2018-05-18T05:42:23.288Z,36.13
2018-05-18T05:44:49.186Z,25.90
2018-05-18T05:47:15.848Z,27.50
2018-05-18T05:49:41.753Z,24.93
2018-05-18T05:52:08.994Z,28.83
2018-05-18T05:54:34.896Z,30.73
2018-05-18T05:57:00.829Z,26.30
2018-05-18T05:59:26.727Z,28.37
2018-05-18T06:01:52.648Z,26.23
2018-05-18T06:04:18.609Z,33.63
2018-05-18T06:06:45.252Z,33.67
2018-05-18T06:09:11.891Z,27.30
2018-05-18T06:11:38.533Z,25.03
2018-05-18T06:14:05.197Z,20.30
2018-05-18T06:16:31.102Z,35.20
2018-05-18T06:18:56.979Z,27.53
2018-05-18T06:21:22.985Z,31.63
2018-05-18T06:23:48.879Z,27.97
2018-05-18T06:26:14.794Z,26.20
2018-05-18T06:28:40.797Z,33.10
2018-05-18T06:31:06.649Z,26.30
2018-05-18T06:33:32.565Z,25.07
2018-05-18T06:35:58.449Z,34.33
2018-05-18T06:38:25.124Z,21.63
2018-05-18T06:40:51.027Z,22.87
2018-05-18T06:43:16.908Z,29.87
2018-05-18T06:45:42.812Z,23.00
2018-05-18T06:48:08.696Z,31.53
2018-05-18T06:50:34.636Z,21.80
2018-05-18T06:53:00.521Z,23.23
2018-05-18T06:55:26.423Z,30.27
2018-05-18T06:57:52.367Z,24.53
2018-05-18T07:00:18.265Z,25.20
2018-05-18T07:02:44.940Z,23.13
2018-05-18T07:05:10.836Z,23.90
2018-05-18T07:07:37.480Z,25.77
2018-05-18T07:10:04.124Z,21.57
2018-05-18T07:12:30.037Z,21.90
2018-05-18T07:14:56.678Z,25.97
2018-05-18T07:17:22.608Z,23.40
2018-05-18T07:19:48.493Z,21.53
2018-05-18T07:22:14.777Z,26.97
2018-05-18T07:24:40.663Z,24.63
2018-05-18T07:27:07.305Z,23.13
2018-05-18T07:29:33.919Z,19.00
2018-05-18T07:31:59.815Z,26.90
2018-05-18T07:34:25.794Z,24.90
2018-05-18T07:36:51.697Z,26.30
2018-05-18T07:39:18.345Z,24.77
2018-05-18T07:41:45.306Z,27.53
2018-05-18T07:44:11.330Z,24.73
2018-05-18T07:46:37.227Z,25.33
2018-05-18T07:49:03.861Z,23.33
2018-05-18T07:51:30.518Z,28.53
2018-05-18T07:53:56.427Z,24.00
2018-05-18T07:56:23.069Z,25.87
2018-05-18T07:58:49.742Z,20.20
2018-05-18T08:01:15.636Z,24.53
2018-05-18T08:03:41.546Z,24.33
2018-05-18T08:06:07.437Z,31.50
2018-05-18T08:08:33.323Z,24.80
2018-05-18T08:10:59.273Z,20.20
2018-05-18T08:13:25.175Z,20.50
2018-05-18T08:15:51.123Z,22.80
2018-05-18T08:18:17.029Z,23.33
2018-05-18T08:20:42.987Z,17.93
2018-05-18T08:23:08.918Z,29.00
2018-05-18T08:25:34.825Z,22.53
2018-05-18T08:28:01.480Z,21.53
2018-05-18T08:30:27.384Z,23.00
2018-05-18T08:32:54.007Z,22.13
2018-05-18T08:35:19.943Z,20.60
2018-05-18T08:37:46.592Z,15.50
2018-05-18T08:40:13.248Z,18.77
2018-05-18T08:42:39.417Z,19.27
2018-05-18T08:45:05.404Z,22.03
2018-05-18T08:47:31.315Z,23.30
2018-05-18T08:49:57.200Z,19.80
2018-05-18T08:52:24.059Z,15.90
2018-05-18T08:54:49.958Z,22.43
2018-05-18T08:57:15.850Z,23.57
2018-05-18T08:59:41.767Z,21.53
2018-05-18T09:02:07.779Z,17.27
2018-05-18T09:04:33.689Z,20.30
2018-05-18T09:06:59.577Z,19.43
2018-05-18T09:09:26.217Z,16.47
2018-05-18T09:11:52.869Z,23.50
2018-05-18T09:14:19.520Z,19.03
2018-05-18T09:16:45.851Z,22.87
2018-05-18T09:19:11.746Z,19.00
2018-05-18T09:21:38.383Z,24.17
2018-05-18T09:24:05.030Z,27.97
2018-05-18T09:26:31.686Z,22.70
2018-05-18T09:28:57.565Z,18.13
2018-05-18T09:31:23.471Z,22.70
2018-05-18T09:33:49.435Z,20.37
2018-05-18T09:36:15.258Z,24.10
2018-05-18T09:38:41.173Z,21.53
2018-05-18T09:41:07.791Z,25.20
2018-05-18T09:43:34.419Z,21.40
2018-05-18T09:46:00.315Z,24.47
2018-05-18T09:48:26.196Z,21.43
2018-05-18T09:50:52.093Z,23.60
2018-05-18T09:53:18.736Z,23.03
2018-05-18T09:55:45.352Z,18.27
2018-05-18T09:58:11.313Z,21.97
2018-05-18T10:00:37.244Z,17.47
2018-05-18T10:03:03.145Z,17.40
2018-05-18T10:05:29.048Z,17.30
2018-05-18T10:07:55.685Z,18.10
2018-05-18T10:10:21.585Z,18.33
2018-05-18T10:12:47.488Z,17.00
2018-05-18T10:15:13.405Z,16.10
2018-05-18T10:17:39.310Z,15.93
2018-05-18T10:20:05.201Z,18.70
2018-05-18T10:22:31.853Z,19.60
2018-05-18T10:24:57.755Z,21.40
2018-05-18T10:27:24.430Z,19.93
2018-05-18T10:29:50.337Z,19.40
2018-05-18T10:32:16.237Z,19.10
2018-05-18T10:34:42.901Z,14.43
2018-05-18T10:37:08.791Z,16.27
2018-05-18T10:39:35.688Z,17.57
2018-05-18T10:42:01.617Z,23.03
2018-05-18T10:44:27.529Z,18.33
2018-05-18T10:46:53.449Z,25.87
2018-05-18T10:49:19.409Z,23.07
2018-05-18T10:51:45.280Z,18.03
2018-05-18T10:54:11.197Z,15.00
2018-05-18T10:56:44.216Z,14.67
2018-05-18T10:59:10.129Z,16.07
2018-05-18T11:01:36.060Z,19.07
2018-05-18T11:04:01.995Z,14.90
2018-05-18T11:06:27.908Z,24.20
2018-05-18T11:08:53.824Z,19.10
2018-05-18T11:11:19.729Z,17.70
2018-05-18T11:13:45.622Z,19.20
2018-05-18T11:16:11.548Z,16.47
2018-05-18T11:18:37.467Z,14.03
2018-05-18T11:21:03.348Z,20.33
2018-05-18T11:23:29.248Z,16.70
2018-05-18T11:25:55.137Z,17.43
2018-05-18T11:28:21.086Z,15.93
2018-05-18T11:30:46.984Z,16.67
2018-05-18T11:33:12.953Z,15.83
2018-05-18T11:35:38.815Z,14.53
2018-05-18T11:38:04.729Z,19.97
2018-05-18T11:40:30.642Z,17.40
2018-05-18T11:42:56.547Z,15.43
2018-05-18T11:45:23.199Z,14.97
2018-05-18T11:47:49.128Z,18.53
2018-05-18T11:50:15.035Z,21.20
2018-05-18T11:52:40.960Z,15.20
2018-05-18T11:55:06.843Z,16.93
2018-05-18T11:57:32.760Z,24.27
2018-05-18T11:59:58.664Z,23.00
2018-05-18T12:02:24.611Z,13.80
2018-05-18T12:04:50.495Z,29.47
2018-05-18T12:07:16.400Z,21.97
2018-05-18T12:09:42.337Z,32.80
2018-05-18T12:12:08.232Z,19.87
2018-05-18T12:14:34.136Z,20.87
2018-05-18T12:17:00.776Z,19.90
2018-05-18T12:19:27.411Z,17.63
2018-05-18T12:21:54.046Z,19.50
2018-05-18T12:24:19.960Z,20.70
2018-05-18T12:26:46.599Z,22.23
2018-05-18T12:29:13.234Z,15.40
2018-05-18T12:31:39.962Z,15.67
2018-05-18T12:34:05.832Z,22.57
2018-05-18T12:36:31.748Z,16.43
2018-05-18T12:38:57.732Z,21.77
2018-05-18T12:41:24.387Z,20.07
2018-05-18T12:43:51.051Z,19.33
2018-05-18T12:46:16.939Z,18.20
2018-05-18T12:48:43.573Z,21.80
2018-05-18T12:51:10.219Z,25.00
2018-05-18T12:53:36.869Z,18.83
2018-05-18T12:56:02.776Z,17.67
2018-05-18T12:58:29.408Z,24.50
2018-05-18T13:00:56.047Z,22.80
2018-05-18T13:03:22.714Z,21.93
2018-05-18T13:05:48.616Z,19.13
2018-05-18T13:08:15.346Z,23.93
2018-05-18T13:10:41.216Z,21.87
2018-05-18T13:13:07.121Z,23.00
2018-05-18T13:15:33.043Z,24.90
2018-05-18T13:17:58.936Z,22.33
2018-05-18T13:20:25.800Z,24.10
2018-05-18T13:22:51.756Z,24.07
2018-05-18T13:25:17.677Z,21.83
2018-05-18T13:27:43.604Z,20.10
2018-05-18T13:30:09.511Z,20.53
2018-05-18T13:32:35.420Z,17.67
2018-05-18T13:35:01.346Z,23.70
2018-05-18T13:37:27.255Z,22.73
2018-05-18T13:39:53.150Z,19.70
2018-05-18T13:42:19.080Z,17.17
2018-05-18T13:44:45.083Z,22.20
2018-05-18T13:47:10.944Z,22.77
2018-05-18T13:49:36.850Z,22.00
2018-05-18T13:52:02.775Z,17.90
2018-05-18T13:54:28.707Z,15.77
2018-05-18T13:56:54.621Z,19.73
2018-05-18T13:59:20.530Z,19.90
2018-05-18T14:01:46.440Z,17.80
2018-05-18T14:04:13.113Z,23.13
2018-05-18T14:06:39.017Z,22.80
2018-05-18T14:09:04.905Z,21.40
2018-05-18T14:11:31.585Z,22.20
2018-05-18T14:13:57.495Z,19.93
2018-05-18T14:16:23.414Z,23.20
2018-05-18T14:18:49.337Z,21.87
2018-05-18T14:21:15.232Z,21.40
2018-05-18T14:23:41.884Z,21.13
2018-05-18T14:26:07.787Z,21.80
2018-05-18T14:28:34.433Z,21.83
2018-05-18T14:31:01.084Z,24.77
2018-05-18T14:33:26.973Z,24.43
2018-05-18T14:35:53.660Z,23.90
2018-05-18T14:38:19.557Z,25.90
2018-05-18T14:40:46.202Z,18.40
2018-05-18T14:43:12.191Z,25.17
2018-05-18T14:45:38.069Z,26.10
2018-05-18T14:48:03.984Z,22.33
2018-05-18T14:50:29.925Z,23.27
2018-05-18T14:52:55.911Z,22.80
2018-05-18T14:55:21.821Z,22.50
2018-05-18T14:57:48.437Z,21.10
2018-05-18T15:00:14.388Z,19.97
2018-05-18T15:02:40.304Z,20.97
2018-05-18T15:05:06.251Z,24.97
2018-05-18T15:07:32.165Z,22.63
2018-05-18T15:09:58.065Z,23.37
2018-05-18T15:12:24.754Z,25.80
2018-05-18T15:14:50.876Z,23.13
2018-05-18T15:17:16.795Z,23.53
2018-05-18T15:19:42.743Z,23.43
2018-05-18T15:22:08.673Z,29.80
2018-05-18T15:24:34.604Z,24.30
2018-05-18T15:27:01.215Z,26.67
2018-05-18T15:29:27.111Z,24.40
2018-05-18T15:31:53.016Z,27.90
2018-05-18T15:34:18.919Z,28.50
2018-05-18T15:36:44.836Z,25.20
2018-05-18T15:39:10.724Z,30.70
2018-05-18T15:41:36.636Z,23.90
2018-05-18T15:44:02.537Z,26.83
2018-05-18T15:46:28.435Z,27.60
2018-05-18T15:48:54.344Z,29.47
2018-05-18T15:51:20.223Z,26.60
2018-05-18T15:53:46.121Z,29.93
2018-05-18T15:56:12.025Z,35.53
2018-05-18T15:58:37.970Z,28.87
2018-05-18T16:01:03.956Z,30.03
2018-05-18T16:03:29.870Z,30.50
2018-05-18T16:05:56.246Z,25.17
2018-05-18T16:08:22.176Z,29.67
2018-05-18T16:10:48.083Z,24.00
2018-05-18T16:13:14.025Z,29.47
2018-05-18T16:15:39.915Z,36.37
2018-05-18T16:18:05.857Z,29.30
2018-05-18T16:20:31.776Z,28.93
2018-05-18T16:22:57.668Z,32.03
2018-05-18T16:25:23.600Z,30.90
2018-05-18T16:27:49.587Z,26.10
2018-05-18T16:30:15.428Z,25.93
2018-05-18T16:32:41.327Z,31.17
2018-05-18T16:35:07.258Z,32.43
2018-05-18T16:37:33.205Z,30.33
2018-05-18T16:39:59.218Z,29.80
2018-05-18T16:42:25.060Z,29.80
2018-05-18T16:44:50.959Z,32.83
2018-05-18T16:47:16.955Z,35.67
2018-05-18T16:49:42.920Z,32.87
2018-05-18T16:52:09.018Z,29.70
2018-05-18T16:54:34.909Z,33.80
2018-05-18T16:57:01.552Z,26.70
2018-05-18T16:59:28.198Z,29.40
2018-05-18T17:01:54.838Z,28.73
2018-05-18T17:04:20.934Z,22.20
2018-05-18T17:06:46.866Z,25.47
2018-05-18T17:09:13.549Z,25.63
2018-05-18T17:11:39.452Z,30.50
2018-05-18T17:14:05.350Z,35.60
2018-05-18T17:16:31.999Z,35.87
2018-05-18T17:18:57.894Z,34.93
2018-05-18T17:21:23.854Z,38.97
2018-05-18T17:23:49.821Z,27.67
2018-05-18T17:26:15.721Z,33.90
2018-05-18T17:28:41.650Z,36.17
2018-05-18T17:31:07.525Z,28.50
2018-05-18T17:33:33.416Z,40.63
2018-05-18T17:35:59.348Z,52.70
2018-05-18T17:38:26.002Z,36.00
2018-05-18T17:40:52.756Z,38.73
2018-05-18T17:43:18.667Z,27.03
2018-05-18T17:45:44.572Z,32.63
2018-05-18T17:48:11.266Z,26.97
2018-05-18T17:50:37.179Z,22.37
2018-05-18T17:53:03.114Z,22.80
2018-05-18T17:55:29.008Z,29.70
2018-05-18T17:57:54.888Z,24.17
2018-05-18T18:00:21.553Z,27.63
2018-05-18T18:02:47.557Z,27.83
2018-05-18T18:05:14.200Z,23.33
2018-05-18T18:07:40.876Z,31.53
2018-05-18T18:10:06.767Z,30.67
2018-05-18T18:12:32.676Z,42.63
2018-05-18T18:14:59.356Z,35.27
2018-05-18T18:17:25.463Z,38.77
2018-05-18T18:19:51.824Z,24.27
2018-05-18T18:22:17.733Z,29.53
2018-05-18T18:24:43.701Z,35.63
2018-05-18T18:27:09.618Z,31.70
2018-05-18T18:29:35.572Z,38.70
2018-05-18T18:32:01.545Z,31.17
2018-05-18T18:34:27.531Z,36.10
2018-05-18T18:36:53.487Z,33.57
2018-05-18T18:39:19.434Z,35.50
2018-05-18T18:41:46.130Z,35.50
2018-05-18T18:44:12.027Z,31.83
2018-05-18T18:46:37.991Z,28.07
2018-05-18T18:49:03.908Z,33.07
2018-05-18T18:51:29.833Z,36.03
2018-05-18T18:53:55.777Z,35.00
2018-05-18T18:56:21.673Z,29.37
2018-05-18T18:58:47.615Z,27.20
2018-05-18T19:01:13.548Z,31.73
2018-05-18T19:03:40.257Z,25.67
2018-05-18T19:06:06.175Z,30.07
2018-05-18T19:08:32.155Z,31.93
2018-05-18T19:10:58.156Z,31.93
2018-05-18T19:13:24.818Z,30.10
2018-05-18T19:15:50.713Z,26.50
2018-05-18T19:18:17.393Z,31.80
2018-05-18T19:20:43.295Z,58.40
2018-05-18T19:23:09.238Z,33.30
2018-05-18T19:25:35.134Z,41.53
2018-05-18T19:28:01.028Z,32.53
2018-05-18T19:30:26.961Z,25.53
2018-05-18T19:32:52.861Z,23.10
2018-05-18T19:35:19.074Z,37.37
2018-05-18T19:37:44.967Z,52.87
2018-05-18T19:40:10.928Z,27.63
2018-05-18T19:42:36.916Z,30.73
2018-05-18T19:45:02.939Z,33.07
2018-05-18T19:47:28.849Z,32.70
2018-05-18T19:49:54.804Z,32.57
2018-05-18T19:52:21.448Z,30.33
2018-05-18T19:54:47.379Z,42.70
2018-05-18T19:57:13.284Z,42.23
2018-05-18T19:59:39.163Z,38.50
2018-05-18T20:02:05.071Z,40.30
2018-05-18T20:04:31.745Z,39.10
2018-05-18T20:06:57.663Z,37.40
2018-05-18T20:09:23.626Z,36.43
2018-05-18T20:11:49.517Z,33.00
2018-05-18T20:14:15.405Z,38.73
2018-05-18T20:16:41.326Z,33.10
2018-05-18T20:19:07.228Z,39.40
2018-05-18T20:21:34.001Z,36.93
2018-05-18T20:23:59.948Z,34.40
2018-05-18T20:26:25.910Z,48.23
2018-05-18T20:28:52.636Z,52.87
2018-05-18T20:31:18.540Z,33.00
2018-05-18T20:33:44.467Z,33.10
2018-05-18T20:36:10.368Z,33.63
2018-05-18T20:38:36.252Z,29.50
2018-05-18T20:41:02.546Z,38.57
2018-05-18T20:43:28.428Z,34.00
2018-05-18T20:45:54.313Z,37.77
2018-05-18T20:48:20.216Z,46.27
2018-05-18T20:50:46.853Z,43.80
2018-05-18T20:53:13.519Z,40.70
2018-05-18T20:55:39.408Z,48.27
2018-05-18T20:58:05.304Z,44.80
2018-05-18T21:00:31.200Z,46.03
2018-05-18T21:02:57.089Z,49.17
2018-05-18T21:05:30.628Z,43.70
2018-05-18T21:07:56.534Z,54.23
2018-05-18T21:10:22.524Z,59.00
2018-05-18T21:12:48.514Z,50.50
2018-05-18T21:15:14.428Z,55.03
2018-05-18T21:17:40.376Z,58.47
2018-05-18T21:20:06.313Z,64.27
2018-05-18T21:22:32.964Z,67.03
2018-05-18T21:24:58.883Z,48.47
2018-05-18T21:27:25.642Z,61.23
2018-05-18T21:29:51.560Z,61.90
2018-05-18T21:32:17.505Z,59.07
2018-05-18T21:34:43.392Z,62.50
2018-05-18T21:37:09.319Z,49.60
2018-05-18T21:39:35.219Z,55.80
2018-05-18T21:42:01.888Z,51.17
2018-05-18T21:44:27.772Z,57.40
2018-05-18T21:46:54.393Z,52.40
2018-05-18T21:49:20.292Z,54.33
2018-05-18T21:51:46.261Z,54.93
2018-05-18T21:54:12.912Z,63.53
2018-05-18T21:56:38.788Z,48.53
2018-05-18T21:59:04.693Z,45.50
2018-05-18T22:01:30.596Z,50.83
2018-05-18T22:03:56.481Z,46.33
2018-05-18T22:06:22.395Z,47.97
2018-05-18T22:08:49.027Z,45.13
2018-05-18T22:11:15.666Z,43.63
2018-05-18T22:13:42.316Z,52.93
2018-05-18T22:16:08.198Z,41.00
2018-05-18T22:18:34.120Z,38.60
2018-05-18T22:21:00.019Z,43.40
2018-05-18T22:23:25.914Z,38.17
2018-05-18T22:25:51.808Z,43.50
2018-05-18T22:28:18.432Z,40.90
2018-05-18T22:30:44.352Z,49.47
2018-05-18T22:33:10.228Z,48.40
2018-05-18T22:35:36.131Z,38.23
2018-05-18T22:38:02.030Z,44.07
2018-05-18T22:40:28.675Z,42.27
2018-05-18T22:42:54.593Z,41.30
2018-05-18T22:45:20.491Z,52.90
2018-05-18T22:47:46.379Z,45.80
2018-05-18T22:50:12.280Z,45.77
2018-05-18T22:52:38.913Z,42.20
2018-05-18T22:55:04.877Z,42.40
2018-05-18T22:57:30.773Z,48.73
2018-05-18T22:59:56.693Z,39.13
2018-05-18T23:02:23.034Z,40.33
2018-05-18T23:04:49.449Z,43.97
2018-05-18T23:07:15.493Z,39.43
2018-05-18T23:09:41.447Z,46.90
2018-05-18T23:12:08.169Z,54.43
2018-05-18T23:14:34.227Z,50.43
2018-05-18T23:17:00.944Z,42.97
2018-05-18T23:19:26.852Z,45.83
2018-05-18T23:21:52.792Z,65.93
2018-05-18T23:24:19.937Z,52.70
2018-05-18T23:26:46.799Z,54.23
2018-05-18T23:29:12.736Z,72.03
2018-05-18T23:31:38.715Z,66.23
2018-05-18T23:34:04.648Z,59.60
2018-05-18T23:36:31.307Z,52.20
2018-05-18T23:38:57.230Z,45.63
2018-05-18T23:41:23.213Z,51.93
2018-05-18T23:43:49.146Z,59.00
2018-05-18T23:46:15.081Z,53.30
2018-05-18T23:48:41.804Z,52.63
2018-05-18T23:51:07.823Z,56.63
2018-05-18T23:53:33.837Z,54.03
2018-05-18T23:55:59.747Z,51.90
2018-05-18T23:58:25.762Z,60.13
